createdAt,value
2018-03-14T00:00:44.595Z,12.70
2018-03-14T00:03:12.925Z,12.00
2018-03-14T00:05:41.186Z,12.23
2018-03-14T00:08:10.289Z,14.07
2018-03-14T00:10:39.357Z,11.07
2018-03-14T00:13:08.489Z,13.53
2018-03-14T00:15:36.809Z,12.33
2018-03-14T00:18:05.154Z,10.90
2018-03-14T00:20:33.470Z,9.50
2018-03-14T00:23:01.744Z,13.33
2018-03-14T00:25:30.102Z,13.60
2018-03-14T00:27:58.428Z,13.70
2018-03-14T00:30:26.754Z,12.97
2018-03-14T00:32:55.100Z,11.43
2018-03-14T00:35:24.223Z,13.07
2018-03-14T00:37:52.524Z,12.40
2018-03-14T00:40:20.845Z,15.90
2018-03-14T00:42:49.119Z,12.33
2018-03-14T00:45:17.483Z,11.00
2018-03-14T00:47:45.774Z,12.23
2018-03-14T00:50:14.048Z,12.20
2018-03-14T00:52:42.581Z,15.60
2018-03-14T00:55:10.869Z,12.43
2018-03-14T00:57:39.162Z,12.60
2018-03-14T01:00:07.465Z,10.57
2018-03-14T01:02:35.749Z,12.03
2018-03-14T01:05:04.071Z,10.90
2018-03-14T01:07:32.376Z,10.97
2018-03-14T01:10:00.648Z,10.70
2018-03-14T01:12:29.044Z,13.57
2018-03-14T01:14:57.443Z,9.80
2018-03-14T01:17:26.482Z,9.80
2018-03-14T01:19:54.812Z,11.93
2018-03-14T01:22:23.112Z,11.90
2018-03-14T01:24:52.164Z,11.73
2018-03-14T01:27:20.512Z,12.67
2018-03-14T01:29:48.801Z,14.63
2018-03-14T01:32:17.071Z,10.97
2018-03-14T01:34:45.388Z,13.17
2018-03-14T01:37:13.694Z,11.93
2018-03-14T01:39:41.990Z,11.47
2018-03-14T01:42:10.402Z,15.37
2018-03-14T01:44:38.662Z,9.80
2018-03-14T01:47:06.995Z,14.40
2018-03-14T01:49:35.327Z,13.93
2018-03-14T01:52:03.676Z,11.70
2018-03-14T01:54:32.730Z,10.23
2018-03-14T01:57:01.026Z,11.67
2018-03-14T01:59:29.314Z,14.27
2018-03-14T02:01:57.696Z,12.33
2018-03-14T02:04:26.746Z,13.70
2018-03-14T02:06:55.024Z,13.33
2018-03-14T02:09:23.351Z,13.17
2018-03-14T02:11:52.391Z,9.57
2018-03-14T02:14:20.649Z,13.37
2018-03-14T02:16:49.729Z,12.83
2018-03-14T02:19:18.839Z,16.07
2018-03-14T02:21:47.941Z,15.77
2018-03-14T02:24:16.248Z,15.10
2018-03-14T02:26:44.539Z,14.40
2018-03-14T02:29:12.844Z,16.97
2018-03-14T02:31:41.203Z,17.60
2018-03-14T02:34:09.537Z,17.30
2018-03-14T02:36:49.702Z,16.27
2018-03-14T02:39:18.013Z,14.73
2018-03-14T02:41:46.315Z,14.97
2018-03-14T02:44:15.494Z,13.77
2018-03-14T02:46:43.798Z,16.07
2018-03-14T02:49:12.076Z,15.93
2018-03-14T02:51:41.425Z,14.53
2018-03-14T02:54:09.691Z,14.77
2018-03-14T02:56:37.962Z,17.73
2018-03-14T02:59:06.300Z,20.20
2018-03-14T03:01:34.603Z,15.13
2018-03-14T03:04:03.684Z,18.50
2018-03-14T03:06:31.952Z,16.50
2018-03-14T03:09:01.208Z,16.73
2018-03-14T03:11:29.557Z,14.23
2018-03-14T03:13:57.839Z,16.97
2018-03-14T03:16:26.903Z,21.43
2018-03-14T03:18:55.214Z,20.97
2018-03-14T03:21:23.486Z,19.67
2018-03-14T03:23:52.526Z,11.40
2018-03-14T03:26:20.826Z,21.50
2018-03-14T03:28:49.111Z,14.90
2018-03-14T03:31:17.435Z,20.43
2018-03-14T03:33:45.713Z,18.00
2018-03-14T03:36:14.761Z,18.43
2018-03-14T03:38:43.092Z,21.97
2018-03-14T03:41:11.356Z,22.13
2018-03-14T03:43:39.650Z,22.90
2018-03-14T03:46:07.995Z,15.07
2018-03-14T03:48:36.265Z,17.77
2018-03-14T03:51:05.305Z,17.93
2018-03-14T03:53:34.092Z,17.77
2018-03-14T03:56:02.386Z,18.63
2018-03-14T03:58:30.737Z,19.77
2018-03-14T04:00:59.026Z,16.47
2018-03-14T04:03:27.303Z,16.43
2018-03-14T04:05:55.630Z,17.37
2018-03-14T04:08:23.921Z,18.67
2018-03-14T04:10:52.192Z,16.30
2018-03-14T04:13:20.506Z,23.03
2018-03-14T04:15:48.764Z,21.03
2018-03-14T04:18:17.866Z,18.67
2018-03-14T04:20:46.920Z,20.60
2018-03-14T04:23:15.274Z,18.93
2018-03-14T04:25:43.611Z,19.80
2018-03-14T04:28:12.655Z,17.10
2018-03-14T04:30:40.933Z,15.83
2018-03-14T04:33:09.265Z,17.97
2018-03-14T04:35:37.541Z,18.07
2018-03-14T04:38:05.822Z,17.17
2018-03-14T04:40:34.894Z,18.23
2018-03-14T04:43:03.182Z,17.10
2018-03-14T04:45:31.501Z,16.73
2018-03-14T04:47:59.777Z,19.97
2018-03-14T04:50:28.055Z,17.03
2018-03-14T04:52:57.151Z,16.03
2018-03-14T04:55:25.437Z,18.93
2018-03-14T04:57:53.788Z,14.57
2018-03-14T05:00:22.912Z,17.67
2018-03-14T05:02:51.183Z,14.07
2018-03-14T05:05:19.494Z,16.47
2018-03-14T05:07:47.773Z,16.70
2018-03-14T05:10:16.089Z,17.30
2018-03-14T05:12:45.125Z,18.10
2018-03-14T05:15:13.393Z,17.00
2018-03-14T05:17:41.714Z,16.30
2018-03-14T05:20:10.019Z,17.63
2018-03-14T05:22:38.354Z,15.13
2018-03-14T05:25:06.626Z,16.23
2018-03-14T05:27:34.906Z,17.23
2018-03-14T05:30:03.215Z,8.07
2018-03-14T05:32:31.492Z,15.80
2018-03-14T05:34:59.820Z,14.90
2018-03-14T05:37:28.090Z,14.37
2018-03-14T05:40:03.463Z,11.37
2018-03-14T05:42:31.752Z,12.00
2018-03-14T05:45:00.044Z,11.63
2018-03-14T05:47:28.391Z,12.13
2018-03-14T05:49:56.660Z,16.30
2018-03-14T05:52:24.970Z,12.40
2018-03-14T05:54:53.274Z,13.77
2018-03-14T05:57:21.543Z,15.37
2018-03-14T05:59:49.863Z,17.83
2018-03-14T06:02:18.165Z,13.90
2018-03-14T06:04:46.479Z,14.50
2018-03-14T06:07:14.757Z,16.83
2018-03-14T06:09:43.038Z,16.03
2018-03-14T06:12:11.346Z,12.30
2018-03-14T06:14:40.516Z,14.90
2018-03-14T06:17:09.253Z,13.33
2018-03-14T06:19:37.543Z,20.43
2018-03-14T06:22:05.840Z,15.43
2018-03-14T06:24:34.203Z,14.63
2018-03-14T06:27:02.517Z,14.13
2018-03-14T06:29:30.854Z,15.87
2018-03-14T06:31:59.143Z,14.03
2018-03-14T06:34:27.426Z,13.93
2018-03-14T06:36:55.732Z,10.73
2018-03-14T06:39:24.085Z,11.17
2018-03-14T06:41:52.400Z,11.73
2018-03-14T06:44:20.688Z,11.80
2018-03-14T06:46:49.540Z,9.10
2018-03-14T06:49:17.836Z,8.70
2018-03-14T06:51:46.119Z,8.80
2018-03-14T06:54:15.210Z,8.60
2018-03-14T06:56:43.712Z,9.87
2018-03-14T06:59:24.609Z,9.57
2018-03-14T07:02:04.718Z,9.67
2018-03-14T07:04:42.363Z,7.53
2018-03-14T07:07:10.634Z,8.83
2018-03-14T07:09:38.900Z,9.40
2018-03-14T07:12:07.965Z,9.93
2018-03-14T07:14:36.267Z,9.93
2018-03-14T07:17:05.357Z,9.40
2018-03-14T07:19:34.394Z,6.23
2018-03-14T07:22:03.335Z,7.50
2018-03-14T07:24:31.619Z,7.37
2018-03-14T07:27:00.653Z,10.20
2018-03-14T07:29:28.976Z,8.80
2018-03-14T07:31:57.238Z,10.20
2018-03-14T07:34:25.514Z,8.20
2018-03-14T07:36:53.818Z,6.10
2018-03-14T07:39:22.121Z,7.17
2018-03-14T07:41:51.196Z,8.30
2018-03-14T07:44:19.456Z,9.63
2018-03-14T07:46:47.726Z,9.17
2018-03-14T07:49:16.017Z,8.80
2018-03-14T07:51:44.303Z,7.80
2018-03-14T07:54:12.620Z,7.57
2018-03-14T07:56:40.892Z,9.33
2018-03-14T07:59:09.915Z,6.93
2018-03-14T08:01:38.207Z,8.80
2018-03-14T08:04:06.483Z,11.70
2018-03-14T08:06:34.891Z,12.40
2018-03-14T08:09:03.164Z,11.40
2018-03-14T08:11:31.442Z,9.60
2018-03-14T08:13:59.724Z,7.23
2018-03-14T08:16:28.004Z,9.60
2018-03-14T08:18:56.349Z,10.33
2018-03-14T08:21:24.643Z,8.40
2018-03-14T08:23:52.894Z,7.77
2018-03-14T08:26:21.212Z,8.80
2018-03-14T08:28:49.509Z,6.80
2018-03-14T08:31:18.610Z,7.03
2018-03-14T08:33:46.922Z,7.13
2018-03-14T08:36:15.268Z,9.00
2018-03-14T08:38:44.375Z,7.87
2018-03-14T08:41:12.689Z,7.00
2018-03-14T08:43:41.009Z,10.60
2018-03-14T08:46:10.058Z,5.27
2018-03-14T08:48:38.318Z,8.10
2018-03-14T08:51:06.601Z,9.87
2018-03-14T08:53:34.878Z,10.17
2018-03-14T08:56:03.234Z,10.93
2018-03-14T08:58:32.291Z,7.70
2018-03-14T09:01:00.558Z,7.00
2018-03-14T09:03:28.862Z,7.60
2018-03-14T09:05:57.115Z,8.00
2018-03-14T09:08:25.454Z,6.20
2018-03-14T09:10:53.718Z,6.27
2018-03-14T09:13:22.002Z,6.20
2018-03-14T09:15:50.291Z,5.23
2018-03-14T09:18:18.588Z,6.47
2018-03-14T09:20:47.683Z,6.27
2018-03-14T09:23:15.939Z,7.57
2018-03-14T09:25:44.194Z,6.77
2018-03-14T09:28:13.265Z,6.23
2018-03-14T09:30:41.534Z,5.80
2018-03-14T09:33:09.846Z,9.43
2018-03-14T09:35:38.885Z,5.10
2018-03-14T09:38:07.158Z,7.60
2018-03-14T09:40:35.438Z,5.40
2018-03-14T09:43:03.707Z,7.20
2018-03-14T09:45:32.030Z,10.23
2018-03-14T09:48:00.301Z,6.57
2018-03-14T09:50:28.688Z,7.23
2018-03-14T09:52:57.021Z,7.90
2018-03-14T09:55:25.289Z,14.30
2018-03-14T09:57:54.347Z,6.90
2018-03-14T10:00:22.679Z,8.13
2018-03-14T10:02:50.971Z,6.63
2018-03-14T10:05:19.241Z,7.50
2018-03-14T10:07:47.564Z,5.97
2018-03-14T10:10:15.824Z,14.17
2018-03-14T10:12:44.106Z,8.03
2018-03-14T10:15:12.410Z,6.27
2018-03-14T10:17:40.718Z,5.13
2018-03-14T10:20:09.055Z,7.83
2018-03-14T10:22:37.364Z,7.90
2018-03-14T10:25:05.625Z,6.97
2018-03-14T10:27:34.687Z,9.63
2018-03-14T10:30:03.041Z,9.23
2018-03-14T10:32:31.298Z,5.90
2018-03-14T10:34:59.572Z,7.50
2018-03-14T10:37:27.893Z,6.60
2018-03-14T10:39:56.179Z,8.10
2018-03-14T10:42:24.482Z,7.87
2018-03-14T10:44:53.522Z,10.00
2018-03-14T10:47:21.804Z,7.90
2018-03-14T10:49:50.169Z,7.47
2018-03-14T10:52:18.442Z,11.47
2018-03-14T10:54:46.717Z,6.90
2018-03-14T10:57:15.015Z,10.83
2018-03-14T10:59:43.295Z,9.40
2018-03-14T11:02:15.608Z,9.00
2018-03-14T11:04:43.871Z,5.60
2018-03-14T11:07:12.160Z,6.47
2018-03-14T11:09:40.508Z,7.73
2018-03-14T11:12:08.822Z,8.77
2018-03-14T11:14:37.093Z,5.93
2018-03-14T11:17:05.408Z,7.30
2018-03-14T11:19:33.670Z,5.23
2018-03-14T11:22:02.714Z,6.83
2018-03-14T11:24:31.002Z,6.00
2018-03-14T11:26:59.301Z,5.40
2018-03-14T11:29:27.603Z,5.37
2018-03-14T11:31:56.647Z,9.43
2018-03-14T11:34:24.924Z,9.90
2018-03-14T11:36:53.238Z,9.10
2018-03-14T11:39:21.499Z,6.90
2018-03-14T11:41:49.827Z,9.77
2018-03-14T11:44:18.105Z,8.43
2018-03-14T11:46:46.412Z,7.60
2018-03-14T11:49:14.721Z,16.77
2018-03-14T11:51:42.994Z,8.13
2018-03-14T11:54:11.322Z,8.97
2018-03-14T11:56:39.598Z,8.30
2018-03-14T11:59:07.873Z,7.00
2018-03-14T12:01:36.184Z,9.97
2018-03-14T12:04:04.454Z,10.53
2018-03-14T12:06:32.760Z,5.77
2018-03-14T12:09:01.022Z,6.30
2018-03-14T12:11:29.287Z,9.83
2018-03-14T12:13:57.577Z,10.80
2018-03-14T12:16:25.884Z,6.80
2018-03-14T12:18:54.201Z,9.10
2018-03-14T12:21:22.472Z,7.50
2018-03-14T12:23:50.741Z,6.10
2018-03-14T12:26:19.111Z,7.73
2018-03-14T12:28:47.347Z,8.00
2018-03-14T12:31:15.799Z,5.73
2018-03-14T12:33:44.134Z,7.90
2018-03-14T12:36:12.435Z,10.37
2018-03-14T12:38:41.465Z,7.07
2018-03-14T12:41:09.766Z,7.43
2018-03-14T12:43:38.027Z,8.50
2018-03-14T12:46:06.346Z,6.90
2018-03-14T12:48:34.877Z,8.90
2018-03-14T12:51:03.147Z,8.53
2018-03-14T12:53:31.474Z,7.30
2018-03-14T12:55:59.751Z,8.83
2018-03-14T12:58:28.835Z,6.67
2018-03-14T13:00:57.198Z,6.47
2018-03-14T13:03:25.486Z,7.23
2018-03-14T13:05:53.795Z,6.73
2018-03-14T13:08:22.103Z,9.90
2018-03-14T13:10:50.742Z,9.00
2018-03-14T13:13:19.003Z,8.90
2018-03-14T13:15:47.309Z,8.83
2018-03-14T13:18:15.593Z,7.83
2018-03-14T13:20:43.941Z,8.20
2018-03-14T13:23:12.252Z,6.83
2018-03-14T13:25:40.506Z,6.90
2018-03-14T13:28:08.828Z,8.03
2018-03-14T13:30:37.125Z,9.20
2018-03-14T13:33:05.447Z,7.30
2018-03-14T13:35:33.713Z,6.90
2018-03-14T13:38:02.002Z,9.03
2018-03-14T13:40:30.286Z,10.20
2018-03-14T13:42:59.500Z,7.30
2018-03-14T13:45:27.804Z,8.27
2018-03-14T13:47:56.101Z,7.37
2018-03-14T13:50:24.380Z,5.77
2018-03-14T13:52:53.538Z,12.20
2018-03-14T13:55:22.588Z,9.30
2018-03-14T13:57:50.913Z,8.37
2018-03-14T14:00:20.095Z,7.33
2018-03-14T14:02:48.429Z,10.70
2018-03-14T14:05:16.862Z,8.63
2018-03-14T14:07:45.235Z,6.97
2018-03-14T14:10:13.490Z,8.10
2018-03-14T14:12:41.846Z,10.67
2018-03-14T14:15:10.236Z,6.40
2018-03-14T14:17:38.557Z,7.30
2018-03-14T14:20:06.826Z,9.53
2018-03-14T14:22:35.908Z,7.57
2018-03-14T14:25:04.407Z,7.30
2018-03-14T14:27:32.640Z,7.47
2018-03-14T14:30:00.943Z,6.30
2018-03-14T14:32:29.207Z,5.97
2018-03-14T14:34:58.277Z,7.10
2018-03-14T14:37:26.608Z,6.50
2018-03-14T14:39:54.863Z,5.93
2018-03-14T14:42:23.142Z,6.50
2018-03-14T14:44:51.446Z,9.37
2018-03-14T14:47:22.972Z,6.60
2018-03-14T14:49:51.363Z,6.80
2018-03-14T14:52:19.628Z,5.80
2018-03-14T14:54:47.914Z,8.07
2018-03-14T14:57:16.238Z,10.07
2018-03-14T14:59:45.267Z,6.57
2018-03-14T15:02:13.580Z,9.20
2018-03-14T15:04:41.967Z,6.47
2018-03-14T15:07:10.257Z,8.33
2018-03-14T15:09:38.612Z,6.57
2018-03-14T15:12:06.879Z,7.83
2018-03-14T15:14:35.167Z,7.17
2018-03-14T15:17:03.486Z,8.03
2018-03-14T15:19:32.559Z,6.77
2018-03-14T15:22:00.880Z,5.13
2018-03-14T15:24:29.138Z,8.20
2018-03-14T15:26:58.195Z,5.97
2018-03-14T15:29:26.499Z,4.87
2018-03-14T15:31:54.779Z,5.43
2018-03-14T15:34:23.053Z,5.43
2018-03-14T15:36:51.368Z,7.77
2018-03-14T15:39:19.709Z,7.57
2018-03-14T15:41:48.044Z,5.43
2018-03-14T15:44:16.388Z,5.90
2018-03-14T15:46:44.671Z,5.00
2018-03-14T15:49:13.750Z,8.13
2018-03-14T15:51:42.819Z,7.87
2018-03-14T15:54:11.115Z,5.37
2018-03-14T15:56:39.393Z,8.87
2018-03-14T15:59:07.703Z,4.70
2018-03-14T16:01:36.773Z,6.27
2018-03-14T16:04:05.039Z,6.00
2018-03-14T16:06:33.653Z,8.50
2018-03-14T16:09:02.444Z,8.80
2018-03-14T16:11:30.692Z,8.20
2018-03-14T16:13:58.955Z,6.60
2018-03-14T16:16:27.288Z,5.97
2018-03-14T16:18:55.554Z,7.10
2018-03-14T16:21:23.832Z,8.73
2018-03-14T16:23:52.256Z,6.23
2018-03-14T16:26:20.535Z,9.03
2018-03-14T16:28:48.838Z,6.07
2018-03-14T16:31:17.191Z,5.10
2018-03-14T16:33:45.481Z,5.23
2018-03-14T16:36:13.771Z,10.03
2018-03-14T16:38:42.100Z,7.07
2018-03-14T16:41:10.374Z,8.70
2018-03-14T16:43:39.490Z,9.10
2018-03-14T16:46:07.822Z,8.40
2018-03-14T16:48:36.162Z,7.70
2018-03-14T16:51:04.502Z,6.23
2018-03-14T16:53:33.528Z,9.90
2018-03-14T16:56:01.801Z,9.13
2018-03-14T16:58:30.126Z,8.27
2018-03-14T17:00:58.402Z,8.23
2018-03-14T17:03:26.676Z,12.13
2018-03-14T17:05:55.140Z,11.50
2018-03-14T17:08:23.423Z,8.70
2018-03-14T17:10:51.729Z,8.77
2018-03-14T17:13:20.792Z,10.93
2018-03-14T17:15:49.082Z,15.37
2018-03-14T17:18:17.396Z,10.80
2018-03-14T17:20:45.684Z,10.90
2018-03-14T17:23:15.043Z,10.83
2018-03-14T17:25:43.397Z,14.67
2018-03-14T17:28:11.682Z,7.27
2018-03-14T17:30:40.022Z,8.03
2018-03-14T17:33:08.280Z,7.70
2018-03-14T17:35:37.320Z,7.10
2018-03-14T17:38:05.628Z,8.80
2018-03-14T17:40:34.454Z,7.80
2018-03-14T17:43:02.764Z,10.73
2018-03-14T17:45:31.077Z,9.03
2018-03-14T17:48:00.115Z,10.50
2018-03-14T17:50:28.454Z,8.00
2018-03-14T17:52:56.744Z,7.27
2018-03-14T17:55:25.016Z,10.10
2018-03-14T17:57:53.316Z,9.67
2018-03-14T18:00:21.609Z,9.87
2018-03-14T18:02:49.941Z,6.83
2018-03-14T18:05:18.223Z,9.80
2018-03-14T18:07:46.499Z,10.63
2018-03-14T18:10:14.798Z,11.07
2018-03-14T18:12:43.857Z,11.80
2018-03-14T18:15:12.177Z,10.60
2018-03-14T18:17:40.479Z,10.77
2018-03-14T18:20:08.782Z,14.10
2018-03-14T18:22:37.102Z,13.83
2018-03-14T18:25:05.380Z,12.40
2018-03-14T18:27:34.507Z,9.70
2018-03-14T18:30:02.796Z,12.10
2018-03-14T18:32:31.835Z,11.73
2018-03-14T18:35:00.163Z,10.67
2018-03-14T18:37:28.457Z,9.33
2018-03-14T18:39:56.738Z,13.20
2018-03-14T18:42:25.047Z,12.30
2018-03-14T18:44:53.323Z,11.77
2018-03-14T18:47:21.682Z,10.33
2018-03-14T18:49:49.970Z,11.90
2018-03-14T18:52:18.259Z,13.43
2018-03-14T18:54:46.574Z,20.83
2018-03-14T18:57:14.881Z,13.67
2018-03-14T18:59:43.242Z,15.90
2018-03-14T19:02:11.571Z,23.73
2018-03-14T19:04:39.914Z,12.60
2018-03-14T19:07:08.835Z,12.03
2018-03-14T19:09:37.172Z,13.10
2018-03-14T19:12:05.615Z,10.70
2018-03-14T19:14:33.880Z,15.30
2018-03-14T19:17:02.192Z,14.30
2018-03-14T19:19:32.082Z,15.33
2018-03-14T19:22:00.383Z,14.80
2018-03-14T19:24:29.586Z,24.03
2018-03-14T19:26:58.667Z,23.10
2018-03-14T19:29:27.218Z,20.33
2018-03-14T19:31:56.416Z,20.70
2018-03-14T19:34:24.765Z,29.23
2018-03-14T19:36:53.105Z,25.53
2018-03-14T19:39:21.417Z,20.23
2018-03-14T19:41:49.795Z,14.57
2018-03-14T19:44:18.281Z,14.63
2018-03-14T19:46:46.595Z,15.90
2018-03-14T19:49:14.963Z,10.87
2018-03-14T19:51:43.379Z,11.27
2018-03-14T19:54:11.690Z,18.73
2018-03-14T19:56:40.021Z,13.10
2018-03-14T19:59:08.293Z,8.63
2018-03-14T20:01:36.777Z,10.47
2018-03-14T20:04:05.132Z,10.27
2018-03-14T20:06:33.504Z,10.27
2018-03-14T20:09:01.964Z,7.67
2018-03-14T20:11:30.244Z,9.20
2018-03-14T20:13:58.584Z,7.37
2018-03-14T20:16:26.889Z,7.23
2018-03-14T20:18:56.028Z,8.50
2018-03-14T20:21:24.390Z,6.17
2018-03-14T20:23:53.039Z,7.13
2018-03-14T20:26:22.260Z,6.40
2018-03-14T20:28:51.431Z,11.57
2018-03-14T20:31:19.824Z,18.60
2018-03-14T20:33:48.192Z,13.97
2018-03-14T20:36:16.589Z,12.17
2018-03-14T20:38:44.996Z,12.87
2018-03-14T20:41:13.323Z,12.63
2018-03-14T20:43:41.718Z,9.60
2018-03-14T20:46:10.143Z,9.30
2018-03-14T20:48:38.500Z,9.80
2018-03-14T20:51:07.657Z,10.27
2018-03-14T20:53:36.288Z,6.93
2018-03-14T20:56:05.418Z,7.80
2018-03-14T20:58:33.807Z,11.63
2018-03-14T21:01:02.833Z,10.60
2018-03-14T21:03:31.535Z,6.63
2018-03-14T21:06:00.043Z,5.90
2018-03-14T21:08:28.392Z,7.07
2018-03-14T21:10:57.253Z,5.33
2018-03-14T21:13:26.676Z,5.10
2018-03-14T21:15:55.070Z,6.17
2018-03-14T21:18:24.596Z,9.37
2018-03-14T21:20:53.168Z,7.83
2018-03-14T21:23:22.233Z,5.73
2018-03-14T21:25:51.413Z,11.63
2018-03-14T21:28:19.723Z,6.63
2018-03-14T21:30:48.233Z,12.50
2018-03-14T21:33:16.704Z,8.43
2018-03-14T21:35:45.111Z,9.00
2018-03-14T21:38:13.433Z,10.27
2018-03-14T21:40:41.767Z,4.90
2018-03-14T21:43:10.066Z,7.63
2018-03-14T21:45:39.142Z,5.63
2018-03-14T21:48:07.460Z,5.03
2018-03-14T21:50:36.129Z,5.70
2018-03-14T21:53:04.569Z,5.80
2018-03-14T21:55:39.188Z,6.83
2018-03-14T21:58:07.513Z,4.93
2018-03-14T22:00:36.591Z,10.50
2018-03-14T22:03:04.871Z,6.07
2018-03-14T22:05:33.214Z,4.73
2018-03-14T22:08:02.301Z,8.73
2018-03-14T22:10:30.594Z,12.13
2018-03-14T22:12:58.923Z,9.10
2018-03-14T22:15:27.275Z,10.03
2018-03-14T22:17:56.309Z,8.70
2018-03-14T22:20:24.763Z,5.03
2018-03-14T22:22:56.015Z,8.87
2018-03-14T22:25:24.321Z,12.70
2018-03-14T22:27:52.621Z,8.00
2018-03-14T22:30:21.071Z,6.00
2018-03-14T22:32:49.413Z,12.20
2018-03-14T22:35:18.430Z,10.77
2018-03-14T22:37:46.704Z,6.67
2018-03-14T22:40:15.044Z,8.40
2018-03-14T22:42:43.358Z,9.53
2018-03-14T22:45:11.674Z,4.77
2018-03-14T22:47:39.944Z,7.07
2018-03-14T22:50:08.220Z,6.83
2018-03-14T22:52:36.569Z,7.43
2018-03-14T22:55:04.798Z,6.63
2018-03-14T22:57:33.136Z,14.13
2018-03-14T23:00:01.408Z,14.90
2018-03-14T23:02:29.671Z,4.87
2018-03-14T23:04:57.982Z,5.57
2018-03-14T23:07:26.320Z,10.57
2018-03-14T23:09:54.588Z,6.60
2018-03-14T23:12:23.623Z,6.97
2018-03-14T23:14:51.910Z,10.70
2018-03-14T23:17:20.218Z,5.90
2018-03-14T23:19:48.785Z,6.80
2018-03-14T23:22:17.209Z,7.00
2018-03-14T23:24:45.489Z,8.07
2018-03-14T23:27:13.803Z,11.40
2018-03-14T23:29:42.092Z,6.73
2018-03-14T23:32:10.366Z,13.27
2018-03-14T23:34:39.461Z,7.70
2018-03-14T23:37:07.723Z,15.97
2018-03-14T23:39:36.751Z,4.33
2018-03-14T23:42:05.054Z,6.07
2018-03-14T23:44:33.332Z,9.33
2018-03-14T23:47:01.609Z,7.53
2018-03-14T23:49:29.928Z,9.40
2018-03-14T23:51:58.210Z,6.83
2018-03-14T23:54:26.514Z,4.67
2018-03-14T23:56:54.848Z,5.57
2018-03-14T23:59:23.938Z,7.53
